sensor_id;sensor_type;location;lat;lon;timestamp;temperature;humidity
40151;DHT22;25866;52.420;10.640;2023-06-10T00:00:40;16.60;99.90
40151;DHT22;25866;52.420;10.640;2023-06-10T00:03:07;16.70;99.90
40151;DHT22;25866;52.420;10.640;2023-06-10T00:05:34;16.60;99.90
40151;DHT22;25866;52.420;10.640;2023-06-10T00:08:01;16.60;99.90
40151;DHT22;25866;52.420;10.640;2023-06-10T00:10:33;16.50;99.90
40151;DHT22;25866;52.420;10.640;2023-06-10T00:13:01;16.50;99.90
40151;DHT22;25866;52.420;10.640;2023-06-10T00:15:27;16.40;99.90
40151;DHT22;25866;52.420;10.640;2023-06-10T00:17:53;16.50;99.90
40151;DHT22;25866;52.420;10.640;2023-06-10T00:20:21;16.30;99.90
40151;DHT22;25866;52.420;10.640;2023-06-10T00:22:50;16.30;99.90
40151;DHT22;25866;52.420;10.640;2023-06-10T00:27:51;16.10;99.90
40151;DHT22;25866;52.420;10.640;2023-06-10T00:30:17;16.00;99.90
40151;DHT22;25866;52.420;10.640;2023-06-10T00:32:43;16.00;99.90
40151;DHT22;25866;52.420;10.640;2023-06-10T00:35:09;16.00;99.90
40151;DHT22;25866;52.420;10.640;2023-06-10T00:37:35;16.00;99.90
40151;DHT22;25866;52.420;10.640;2023-06-10T00:40:05;16.00;99.90
40151;DHT22;25866;52.420;10.640;2023-06-10T00:42:31;15.90;99.90
40151;DHT22;25866;52.420;10.640;2023-06-10T00:44:57;16.00;99.90
40151;DHT22;25866;52.420;10.640;2023-06-10T00:47:23;15.90;99.90
40151;DHT22;25866;52.420;10.640;2023-06-10T00:49:50;15.80;99.90
40151;DHT22;25866;52.420;10.640;2023-06-10T00:52:17;15.80;99.90
40151;DHT22;25866;52.420;10.640;2023-06-10T00:54:45;15.80;99.90
40151;DHT22;25866;52.420;10.640;2023-06-10T00:57:12;15.80;99.90
40151;DHT22;25866;52.420;10.640;2023-06-10T00:59:40;15.70;99.90
40151;DHT22;25866;52.420;10.640;2023-06-10T01:02:07;15.70;99.90
40151;DHT22;25866;52.420;10.640;2023-06-10T01:04:33;15.80;99.90
40151;DHT22;25866;52.420;10.640;2023-06-10T01:09:41;15.70;99.90
40151;DHT22;25866;52.420;10.640;2023-06-10T01:12:19;15.70;99.90
40151;DHT22;25866;52.420;10.640;2023-06-10T01:14:46;15.60;99.90
40151;DHT22;25866;52.420;10.640;2023-06-10T01:17:14;15.60;99.90
40151;DHT22;25866;52.420;10.640;2023-06-10T01:19:42;15.60;99.90
40151;DHT22;25866;52.420;10.640;2023-06-10T01:22:09;15.50;99.90
40151;DHT22;25866;52.420;10.640;2023-06-10T01:24:37;15.40;99.90
40151;DHT22;25866;52.420;10.640;2023-06-10T01:27:10;15.40;99.90
40151;DHT22;25866;52.420;10.640;2023-06-10T01:29:45;15.30;99.90
40151;DHT22;25866;52.420;10.640;2023-06-10T01:32:23;15.30;99.90
40151;DHT22;25866;52.420;10.640;2023-06-10T01:34:52;15.30;99.90
40151;DHT22;25866;52.420;10.640;2023-06-10T01:37:23;15.30;99.90
40151;DHT22;25866;52.420;10.640;2023-06-10T01:39:50;15.30;99.90
40151;DHT22;25866;52.420;10.640;2023-06-10T01:42:17;15.20;99.90
40151;DHT22;25866;52.420;10.640;2023-06-10T01:44:43;15.10;99.90
40151;DHT22;25866;52.420;10.640;2023-06-10T01:47:09;15.10;99.90
40151;DHT22;25866;52.420;10.640;2023-06-10T01:49:34;15.10;99.90
40151;DHT22;25866;52.420;10.640;2023-06-10T01:52:00;15.00;99.90
40151;DHT22;25866;52.420;10.640;2023-06-10T01:54:26;14.90;99.90
40151;DHT22;25866;52.420;10.640;2023-06-10T01:56:52;14.90;99.90
40151;DHT22;25866;52.420;10.640;2023-06-10T01:59:17;14.90;99.90
40151;DHT22;25866;52.420;10.640;2023-06-10T02:01:43;14.90;99.90
40151;DHT22;25866;52.420;10.640;2023-06-10T02:04:09;14.80;99.90
40151;DHT22;25866;52.420;10.640;2023-06-10T02:06:35;14.80;99.90
40151;DHT22;25866;52.420;10.640;2023-06-10T02:09:01;14.80;99.90
40151;DHT22;25866;52.420;10.640;2023-06-10T02:11:27;14.70;99.90
40151;DHT22;25866;52.420;10.640;2023-06-10T02:13:52;14.70;99.90
40151;DHT22;25866;52.420;10.640;2023-06-10T02:16:18;14.70;99.90
40151;DHT22;25866;52.420;10.640;2023-06-10T02:18:44;14.70;99.90
40151;DHT22;25866;52.420;10.640;2023-06-10T02:21:10;14.70;99.90
40151;DHT22;25866;52.420;10.640;2023-06-10T02:23:36;14.60;99.90
40151;DHT22;25866;52.420;10.640;2023-06-10T02:26:02;14.50;99.90
40151;DHT22;25866;52.420;10.640;2023-06-10T02:28:28;14.50;99.90
40151;DHT22;25866;52.420;10.640;2023-06-10T02:30:54;14.50;99.90
40151;DHT22;25866;52.420;10.640;2023-06-10T02:33:22;14.50;99.90
40151;DHT22;25866;52.420;10.640;2023-06-10T02:35:48;14.40;99.90
40151;DHT22;25866;52.420;10.640;2023-06-10T02:38:14;14.30;99.90
40151;DHT22;25866;52.420;10.640;2023-06-10T02:40:40;14.30;99.90
40151;DHT22;25866;52.420;10.640;2023-06-10T02:43:05;14.30;99.90
40151;DHT22;25866;52.420;10.640;2023-06-10T02:45:31;14.30;99.90
40151;DHT22;25866;52.420;10.640;2023-06-10T02:47:57;14.20;99.90
40151;DHT22;25866;52.420;10.640;2023-06-10T02:50:22;14.10;99.90
40151;DHT22;25866;52.420;10.640;2023-06-10T02:52:48;14.10;99.90
40151;DHT22;25866;52.420;10.640;2023-06-10T02:55:15;14.20;99.90
40151;DHT22;25866;52.420;10.640;2023-06-10T02:57:41;14.20;99.90
40151;DHT22;25866;52.420;10.640;2023-06-10T03:00:07;14.20;99.90
40151;DHT22;25866;52.420;10.640;2023-06-10T03:02:37;14.10;99.90
40151;DHT22;25866;52.420;10.640;2023-06-10T03:05:05;14.10;99.90
40151;DHT22;25866;52.420;10.640;2023-06-10T03:07:31;14.10;99.90
40151;DHT22;25866;52.420;10.640;2023-06-10T03:09:57;14.10;99.90
40151;DHT22;25866;52.420;10.640;2023-06-10T03:12:23;14.10;99.90
40151;DHT22;25866;52.420;10.640;2023-06-10T03:14:49;14.10;99.90
40151;DHT22;25866;52.420;10.640;2023-06-10T03:17:15;14.10;99.90
40151;DHT22;25866;52.420;10.640;2023-06-10T03:19:40;14.10;99.90
40151;DHT22;25866;52.420;10.640;2023-06-10T03:22:11;14.20;99.90
40151;DHT22;25866;52.420;10.640;2023-06-10T03:24:37;14.20;99.90
40151;DHT22;25866;52.420;10.640;2023-06-10T03:27:09;14.10;99.90
40151;DHT22;25866;52.420;10.640;2023-06-10T03:29:35;14.10;99.90
40151;DHT22;25866;52.420;10.640;2023-06-10T03:32:01;14.10;99.90
40151;DHT22;25866;52.420;10.640;2023-06-10T03:34:27;14.00;99.90
40151;DHT22;25866;52.420;10.640;2023-06-10T03:36:53;14.10;99.90
40151;DHT22;25866;52.420;10.640;2023-06-10T03:39:19;14.00;99.90
40151;DHT22;25866;52.420;10.640;2023-06-10T03:41:45;14.00;99.90
40151;DHT22;25866;52.420;10.640;2023-06-10T03:44:10;14.00;99.90
40151;DHT22;25866;52.420;10.640;2023-06-10T03:46:36;13.90;99.90
40151;DHT22;25866;52.420;10.640;2023-06-10T03:49:02;13.90;99.90
40151;DHT22;25866;52.420;10.640;2023-06-10T03:51:29;14.00;99.90
40151;DHT22;25866;52.420;10.640;2023-06-10T03:53:54;13.90;99.90
40151;DHT22;25866;52.420;10.640;2023-06-10T03:56:20;13.90;99.90
40151;DHT22;25866;52.420;10.640;2023-06-10T03:58:46;14.00;99.90
40151;DHT22;25866;52.420;10.640;2023-06-10T04:01:11;13.90;99.90
40151;DHT22;25866;52.420;10.640;2023-06-10T04:03:38;13.70;99.90
40151;DHT22;25866;52.420;10.640;2023-06-10T04:06:05;13.80;99.90
40151;DHT22;25866;52.420;10.640;2023-06-10T04:08:30;13.80;99.90
40151;DHT22;25866;52.420;10.640;2023-06-10T04:10:58;13.90;99.90
40151;DHT22;25866;52.420;10.640;2023-06-10T04:13:24;14.00;99.90
40151;DHT22;25866;52.420;10.640;2023-06-10T04:15:49;14.00;99.90
40151;DHT22;25866;52.420;10.640;2023-06-10T04:18:16;14.00;99.90
40151;DHT22;25866;52.420;10.640;2023-06-10T04:20:42;14.00;99.90
40151;DHT22;25866;52.420;10.640;2023-06-10T04:23:08;14.00;99.90
40151;DHT22;25866;52.420;10.640;2023-06-10T04:25:34;14.00;99.90
40151;DHT22;25866;52.420;10.640;2023-06-10T04:28:00;14.00;99.90
40151;DHT22;25866;52.420;10.640;2023-06-10T04:30:25;14.00;99.90
40151;DHT22;25866;52.420;10.640;2023-06-10T04:32:51;14.00;99.90
40151;DHT22;25866;52.420;10.640;2023-06-10T04:35:17;14.10;99.90
40151;DHT22;25866;52.420;10.640;2023-06-10T04:37:43;14.20;99.90
40151;DHT22;25866;52.420;10.640;2023-06-10T04:40:09;14.20;99.90
40151;DHT22;25866;52.420;10.640;2023-06-10T04:42:35;14.30;99.90
40151;DHT22;25866;52.420;10.640;2023-06-10T04:45:01;14.30;99.90
40151;DHT22;25866;52.420;10.640;2023-06-10T04:47:28;14.50;99.90
40151;DHT22;25866;52.420;10.640;2023-06-10T04:49:54;14.60;99.90
40151;DHT22;25866;52.420;10.640;2023-06-10T04:52:19;14.70;99.90
40151;DHT22;25866;52.420;10.640;2023-06-10T04:54:45;14.90;99.90
40151;DHT22;25866;52.420;10.640;2023-06-10T04:57:11;15.00;99.90
40151;DHT22;25866;52.420;10.640;2023-06-10T04:59:37;15.00;99.90
40151;DHT22;25866;52.420;10.640;2023-06-10T05:02:06;15.00;99.90
40151;DHT22;25866;52.420;10.640;2023-06-10T05:04:32;15.10;99.90
40151;DHT22;25866;52.420;10.640;2023-06-10T05:06:58;15.10;99.90
40151;DHT22;25866;52.420;10.640;2023-06-10T05:09:24;15.20;99.90
40151;DHT22;25866;52.420;10.640;2023-06-10T05:11:51;15.30;99.90
40151;DHT22;25866;52.420;10.640;2023-06-10T05:14:19;15.30;99.90
40151;DHT22;25866;52.420;10.640;2023-06-10T05:16:46;15.30;99.90
40151;DHT22;25866;52.420;10.640;2023-06-10T05:19:12;15.30;99.90
40151;DHT22;25866;52.420;10.640;2023-06-10T05:21:39;15.30;99.90
40151;DHT22;25866;52.420;10.640;2023-06-10T05:24:05;15.40;99.90
40151;DHT22;25866;52.420;10.640;2023-06-10T05:26:31;15.40;99.90
40151;DHT22;25866;52.420;10.640;2023-06-10T05:28:58;15.30;99.90
40151;DHT22;25866;52.420;10.640;2023-06-10T05:31:24;15.20;99.90
40151;DHT22;25866;52.420;10.640;2023-06-10T05:33:50;15.30;99.90
40151;DHT22;25866;52.420;10.640;2023-06-10T05:36:15;15.30;99.90
40151;DHT22;25866;52.420;10.640;2023-06-10T05:38:41;15.30;99.90
40151;DHT22;25866;52.420;10.640;2023-06-10T05:41:08;15.30;99.90
40151;DHT22;25866;52.420;10.640;2023-06-10T05:43:33;15.40;99.90
40151;DHT22;25866;52.420;10.640;2023-06-10T05:45:59;15.40;99.90
40151;DHT22;25866;52.420;10.640;2023-06-10T05:48:25;15.40;99.90
40151;DHT22;25866;52.420;10.640;2023-06-10T05:50:51;15.50;99.90
40151;DHT22;25866;52.420;10.640;2023-06-10T05:53:16;15.40;99.90
40151;DHT22;25866;52.420;10.640;2023-06-10T05:55:44;15.50;99.90
40151;DHT22;25866;52.420;10.640;2023-06-10T05:58:10;15.50;99.90
40151;DHT22;25866;52.420;10.640;2023-06-10T06:00:40;15.60;99.90
40151;DHT22;25866;52.420;10.640;2023-06-10T06:03:07;15.60;99.90
40151;DHT22;25866;52.420;10.640;2023-06-10T06:05:36;15.70;99.90
40151;DHT22;25866;52.420;10.640;2023-06-10T06:08:07;15.70;99.90
40151;DHT22;25866;52.420;10.640;2023-06-10T06:10:33;15.80;99.90
40151;DHT22;25866;52.420;10.640;2023-06-10T06:13:00;16.00;99.90
40151;DHT22;25866;52.420;10.640;2023-06-10T06:15:26;16.10;99.90
40151;DHT22;25866;52.420;10.640;2023-06-10T06:17:52;16.10;99.90
40151;DHT22;25866;52.420;10.640;2023-06-10T06:20:22;16.20;99.90
40151;DHT22;25866;52.420;10.640;2023-06-10T06:22:48;16.30;99.90
40151;DHT22;25866;52.420;10.640;2023-06-10T06:25:15;16.30;99.90
40151;DHT22;25866;52.420;10.640;2023-06-10T06:27:41;16.50;99.90
40151;DHT22;25866;52.420;10.640;2023-06-10T06:30:07;16.50;99.90
40151;DHT22;25866;52.420;10.640;2023-06-10T06:32:33;16.60;99.90
40151;DHT22;25866;52.420;10.640;2023-06-10T06:34:59;16.70;99.90
40151;DHT22;25866;52.420;10.640;2023-06-10T06:37:25;16.70;99.90
40151;DHT22;25866;52.420;10.640;2023-06-10T06:39:52;16.70;99.90
40151;DHT22;25866;52.420;10.640;2023-06-10T06:42:18;16.80;99.90
40151;DHT22;25866;52.420;10.640;2023-06-10T06:44:44;16.90;99.90
40151;DHT22;25866;52.420;10.640;2023-06-10T06:47:10;17.00;99.90
40151;DHT22;25866;52.420;10.640;2023-06-10T06:49:35;17.00;99.90
40151;DHT22;25866;52.420;10.640;2023-06-10T06:52:01;17.20;99.90
40151;DHT22;25866;52.420;10.640;2023-06-10T06:54:27;17.30;99.90
40151;DHT22;25866;52.420;10.640;2023-06-10T06:56:53;17.40;99.90
40151;DHT22;25866;52.420;10.640;2023-06-10T06:59:19;17.50;99.90
40151;DHT22;25866;52.420;10.640;2023-06-10T07:01:46;17.70;99.90
40151;DHT22;25866;52.420;10.640;2023-06-10T07:04:14;17.90;99.90
40151;DHT22;25866;52.420;10.640;2023-06-10T07:06:39;18.00;99.90
40151;DHT22;25866;52.420;10.640;2023-06-10T07:09:06;18.30;99.90
40151;DHT22;25866;52.420;10.640;2023-06-10T07:11:33;18.50;99.90
40151;DHT22;25866;52.420;10.640;2023-06-10T07:13:58;18.70;99.90
40151;DHT22;25866;52.420;10.640;2023-06-10T07:16:24;18.70;99.90
40151;DHT22;25866;52.420;10.640;2023-06-10T07:18:50;18.80;99.90
40151;DHT22;25866;52.420;10.640;2023-06-10T07:21:15;18.80;99.90
40151;DHT22;25866;52.420;10.640;2023-06-10T07:23:42;18.80;99.90
40151;DHT22;25866;52.420;10.640;2023-06-10T07:26:08;18.70;99.90
40151;DHT22;25866;52.420;10.640;2023-06-10T07:28:37;18.90;99.90
40151;DHT22;25866;52.420;10.640;2023-06-10T07:31:03;19.10;99.90
40151;DHT22;25866;52.420;10.640;2023-06-10T07:33:29;19.20;99.90
40151;DHT22;25866;52.420;10.640;2023-06-10T07:35:55;19.20;99.90
40151;DHT22;25866;52.420;10.640;2023-06-10T07:38:20;19.40;99.90
40151;DHT22;25866;52.420;10.640;2023-06-10T07:40:46;19.60;99.90
40151;DHT22;25866;52.420;10.640;2023-06-10T07:43:12;19.70;99.90
40151;DHT22;25866;52.420;10.640;2023-06-10T07:45:40;19.80;99.90
40151;DHT22;25866;52.420;10.640;2023-06-10T07:48:06;19.90;99.90
40151;DHT22;25866;52.420;10.640;2023-06-10T07:50:33;20.10;99.90
40151;DHT22;25866;52.420;10.640;2023-06-10T07:52:58;20.10;99.90
40151;DHT22;25866;52.420;10.640;2023-06-10T07:55:24;20.20;99.90
40151;DHT22;25866;52.420;10.640;2023-06-10T07:57:52;20.00;99.90
40151;DHT22;25866;52.420;10.640;2023-06-10T08:00:18;19.90;99.90
40151;DHT22;25866;52.420;10.640;2023-06-10T08:02:44;20.00;99.90
40151;DHT22;25866;52.420;10.640;2023-06-10T08:05:10;20.20;99.90
40151;DHT22;25866;52.420;10.640;2023-06-10T08:07:36;20.20;99.90
40151;DHT22;25866;52.420;10.640;2023-06-10T08:10:02;20.40;99.90
40151;DHT22;25866;52.420;10.640;2023-06-10T08:12:29;20.40;99.90
40151;DHT22;25866;52.420;10.640;2023-06-10T08:14:55;20.60;99.90
40151;DHT22;25866;52.420;10.640;2023-06-10T08:17:21;20.70;99.90
40151;DHT22;25866;52.420;10.640;2023-06-10T08:19:47;20.70;99.90
40151;DHT22;25866;52.420;10.640;2023-06-10T08:22:12;20.80;99.90
40151;DHT22;25866;52.420;10.640;2023-06-10T08:24:38;21.00;99.90
40151;DHT22;25866;52.420;10.640;2023-06-10T08:27:04;20.70;99.90
40151;DHT22;25866;52.420;10.640;2023-06-10T08:29:31;20.90;99.90
40151;DHT22;25866;52.420;10.640;2023-06-10T08:31:58;21.00;99.90
40151;DHT22;25866;52.420;10.640;2023-06-10T08:34:24;21.20;99.90
40151;DHT22;25866;52.420;10.640;2023-06-10T08:36:50;21.40;99.90
40151;DHT22;25866;52.420;10.640;2023-06-10T08:39:19;21.60;99.90
40151;DHT22;25866;52.420;10.640;2023-06-10T08:42:17;21.50;99.90
40151;DHT22;25866;52.420;10.640;2023-06-10T08:44:38;21.60;99.90
40151;DHT22;25866;52.420;10.640;2023-06-10T08:47:13;21.60;99.90
40151;DHT22;25866;52.420;10.640;2023-06-10T08:49:44;21.80;99.90
40151;DHT22;25866;52.420;10.640;2023-06-10T08:52:18;21.90;99.90
40151;DHT22;25866;52.420;10.640;2023-06-10T08:54:52;21.90;99.90
40151;DHT22;25866;52.420;10.640;2023-06-10T08:57:20;22.00;99.90
40151;DHT22;25866;52.420;10.640;2023-06-10T08:59:48;22.10;99.90
40151;DHT22;25866;52.420;10.640;2023-06-10T09:02:15;22.30;99.90
40151;DHT22;25866;52.420;10.640;2023-06-10T09:04:43;22.50;99.90
40151;DHT22;25866;52.420;10.640;2023-06-10T09:07:10;22.60;99.90
40151;DHT22;25866;52.420;10.640;2023-06-10T09:09:37;22.60;99.90
40151;DHT22;25866;52.420;10.640;2023-06-10T09:12:03;22.80;99.90
40151;DHT22;25866;52.420;10.640;2023-06-10T09:14:29;22.90;99.90
40151;DHT22;25866;52.420;10.640;2023-06-10T09:16:55;23.00;99.90
40151;DHT22;25866;52.420;10.640;2023-06-10T09:19:25;23.10;99.90
40151;DHT22;25866;52.420;10.640;2023-06-10T09:21:53;23.40;99.90
40151;DHT22;25866;52.420;10.640;2023-06-10T09:24:20;23.60;99.90
40151;DHT22;25866;52.420;10.640;2023-06-10T09:26:47;23.60;99.20
40151;DHT22;25866;52.420;10.640;2023-06-10T09:29:13;23.60;99.10
40151;DHT22;25866;52.420;10.640;2023-06-10T09:31:39;23.70;99.90
40151;DHT22;25866;52.420;10.640;2023-06-10T09:34:07;23.70;99.10
40151;DHT22;25866;52.420;10.640;2023-06-10T09:36:34;23.80;99.00
40151;DHT22;25866;52.420;10.640;2023-06-10T09:39:01;23.80;99.00
40151;DHT22;25866;52.420;10.640;2023-06-10T09:41:34;23.90;99.10
40151;DHT22;25866;52.420;10.640;2023-06-10T09:44:18;23.80;98.50
40151;DHT22;25866;52.420;10.640;2023-06-10T09:46:48;23.90;98.90
40151;DHT22;25866;52.420;10.640;2023-06-10T09:49:16;24.10;99.30
40151;DHT22;25866;52.420;10.640;2023-06-10T09:51:54;24.30;98.90
40151;DHT22;25866;52.420;10.640;2023-06-10T09:54:21;24.30;98.30
40151;DHT22;25866;52.420;10.640;2023-06-10T09:56:48;24.40;99.20
40151;DHT22;25866;52.420;10.640;2023-06-10T09:59:14;24.60;97.90
40151;DHT22;25866;52.420;10.640;2023-06-10T10:01:41;24.50;98.10
40151;DHT22;25866;52.420;10.640;2023-06-10T10:04:07;24.50;97.70
40151;DHT22;25866;52.420;10.640;2023-06-10T10:06:34;24.40;97.70
40151;DHT22;25866;52.420;10.640;2023-06-10T10:09:00;24.40;97.30
40151;DHT22;25866;52.420;10.640;2023-06-10T10:11:27;24.60;98.00
40151;DHT22;25866;52.420;10.640;2023-06-10T10:13:54;24.70;96.90
40151;DHT22;25866;52.420;10.640;2023-06-10T10:16:25;24.30;96.80
40151;DHT22;25866;52.420;10.640;2023-06-10T10:18:58;24.50;97.90
40151;DHT22;25866;52.420;10.640;2023-06-10T10:21:27;24.70;97.50
40151;DHT22;25866;52.420;10.640;2023-06-10T10:24:18;24.90;98.50
40151;DHT22;25866;52.420;10.640;2023-06-10T10:26:48;25.10;97.90
40151;DHT22;25866;52.420;10.640;2023-06-10T10:29:20;25.20;96.30
40151;DHT22;25866;52.420;10.640;2023-06-10T10:31:50;25.10;96.50
40151;DHT22;25866;52.420;10.640;2023-06-10T10:34:21;24.90;96.40
40151;DHT22;25866;52.420;10.640;2023-06-10T10:36:50;24.90;96.60
40151;DHT22;25866;52.420;10.640;2023-06-10T10:39:16;25.20;97.10
40151;DHT22;25866;52.420;10.640;2023-06-10T10:41:43;25.30;96.50
40151;DHT22;25866;52.420;10.640;2023-06-10T10:44:09;25.40;96.50
40151;DHT22;25866;52.420;10.640;2023-06-10T10:46:49;25.60;96.60
40151;DHT22;25866;52.420;10.640;2023-06-10T10:49:17;25.80;96.00
40151;DHT22;25866;52.420;10.640;2023-06-10T10:51:56;26.00;96.20
40151;DHT22;25866;52.420;10.640;2023-06-10T10:54:52;26.30;95.60
40151;DHT22;25866;52.420;10.640;2023-06-10T10:57:20;26.50;94.30
40151;DHT22;25866;52.420;10.640;2023-06-10T10:59:56;26.50;94.70
40151;DHT22;25866;52.420;10.640;2023-06-10T11:02:36;26.30;94.70
40151;DHT22;25866;52.420;10.640;2023-06-10T11:05:07;26.40;94.70
40151;DHT22;25866;52.420;10.640;2023-06-10T11:07:34;26.40;94.20
40151;DHT22;25866;52.420;10.640;2023-06-10T11:15:11;26.80;94.60
40151;DHT22;25866;52.420;10.640;2023-06-10T11:17:37;26.90;94.10
40151;DHT22;25866;52.420;10.640;2023-06-10T11:20:03;26.90;93.80
40151;DHT22;25866;52.420;10.640;2023-06-10T11:22:28;26.80;94.40
40151;DHT22;25866;52.420;10.640;2023-06-10T11:24:54;26.90;94.00
40151;DHT22;25866;52.420;10.640;2023-06-10T11:27:24;27.00;93.90
40151;DHT22;25866;52.420;10.640;2023-06-10T11:30:20;27.10;93.70
40151;DHT22;25866;52.420;10.640;2023-06-10T11:32:50;27.20;92.20
40151;DHT22;25866;52.420;10.640;2023-06-10T11:35:19;27.10;92.70
40151;DHT22;25866;52.420;10.640;2023-06-10T11:37:45;27.00;92.30
40151;DHT22;25866;52.420;10.640;2023-06-10T11:40:12;27.20;93.30
40151;DHT22;25866;52.420;10.640;2023-06-10T11:42:42;27.20;92.90
40151;DHT22;25866;52.420;10.640;2023-06-10T11:45:08;27.00;92.30
40151;DHT22;25866;52.420;10.640;2023-06-10T11:47:34;27.20;93.90
40151;DHT22;25866;52.420;10.640;2023-06-10T11:49:59;27.30;93.00
40151;DHT22;25866;52.420;10.640;2023-06-10T11:52:30;27.50;92.10
40151;DHT22;25866;52.420;10.640;2023-06-10T11:54:57;27.50;93.00
40151;DHT22;25866;52.420;10.640;2023-06-10T11:57:23;27.60;92.30
40151;DHT22;25866;52.420;10.640;2023-06-10T11:59:49;27.70;92.60
40151;DHT22;25866;52.420;10.640;2023-06-10T12:02:16;27.90;92.50
40151;DHT22;25866;52.420;10.640;2023-06-10T12:04:43;27.90;92.10
40151;DHT22;25866;52.420;10.640;2023-06-10T12:07:08;27.80;92.60
40151;DHT22;25866;52.420;10.640;2023-06-10T12:09:34;27.90;92.00
40151;DHT22;25866;52.420;10.640;2023-06-10T12:12:04;28.00;92.10
40151;DHT22;25866;52.420;10.640;2023-06-10T12:14:54;28.20;91.90
40151;DHT22;25866;52.420;10.640;2023-06-10T12:17:22;28.20;91.50
40151;DHT22;25866;52.420;10.640;2023-06-10T12:19:49;28.10;91.30
40151;DHT22;25866;52.420;10.640;2023-06-10T12:22:15;28.00;91.40
40151;DHT22;25866;52.420;10.640;2023-06-10T12:25:09;28.00;91.90
40151;DHT22;25866;52.420;10.640;2023-06-10T12:27:35;28.00;91.70
40151;DHT22;25866;52.420;10.640;2023-06-10T12:30:04;28.20;92.10
40151;DHT22;25866;52.420;10.640;2023-06-10T12:32:41;28.40;92.20
40151;DHT22;25866;52.420;10.640;2023-06-10T12:35:08;28.70;91.30
40151;DHT22;25866;52.420;10.640;2023-06-10T12:37:34;28.60;90.60
40151;DHT22;25866;52.420;10.640;2023-06-10T12:40:05;28.60;92.40
40151;DHT22;25866;52.420;10.640;2023-06-10T12:42:32;28.60;90.70
40151;DHT22;25866;52.420;10.640;2023-06-10T12:45:00;28.40;91.40
40151;DHT22;25866;52.420;10.640;2023-06-10T12:47:44;28.20;90.70
40151;DHT22;25866;52.420;10.640;2023-06-10T12:50:10;28.30;91.00
40151;DHT22;25866;52.420;10.640;2023-06-10T12:52:37;28.30;90.20
40151;DHT22;25866;52.420;10.640;2023-06-10T12:55:03;28.40;91.30
40151;DHT22;25866;52.420;10.640;2023-06-10T12:57:29;28.50;90.30
40151;DHT22;25866;52.420;10.640;2023-06-10T12:59:56;28.50;90.80
40151;DHT22;25866;52.420;10.640;2023-06-10T13:02:28;28.70;90.70
40151;DHT22;25866;52.420;10.640;2023-06-10T13:04:54;28.70;90.20
40151;DHT22;25866;52.420;10.640;2023-06-10T13:07:20;28.60;90.10
40151;DHT22;25866;52.420;10.640;2023-06-10T13:09:48;28.50;90.20
40151;DHT22;25866;52.420;10.640;2023-06-10T13:12:14;28.60;90.50
40151;DHT22;25866;52.420;10.640;2023-06-10T13:14:40;28.60;87.40
40151;DHT22;25866;52.420;10.640;2023-06-10T13:17:05;28.60;87.90
40151;DHT22;25866;52.420;10.640;2023-06-10T13:19:32;28.70;88.00
40151;DHT22;25866;52.420;10.640;2023-06-10T13:21:58;28.90;89.00
40151;DHT22;25866;52.420;10.640;2023-06-10T13:24:24;29.20;88.30
40151;DHT22;25866;52.420;10.640;2023-06-10T13:26:50;29.30;88.20
40151;DHT22;25866;52.420;10.640;2023-06-10T13:29:16;29.40;88.60
40151;DHT22;25866;52.420;10.640;2023-06-10T13:31:42;29.30;86.60
40151;DHT22;25866;52.420;10.640;2023-06-10T13:34:08;29.40;88.20
40151;DHT22;25866;52.420;10.640;2023-06-10T13:36:33;29.50;90.70
40151;DHT22;25866;52.420;10.640;2023-06-10T13:38:59;29.40;87.90
40151;DHT22;25866;52.420;10.640;2023-06-10T13:41:25;29.20;87.90
40151;DHT22;25866;52.420;10.640;2023-06-10T13:43:54;29.00;88.60
40151;DHT22;25866;52.420;10.640;2023-06-10T13:46:21;28.60;88.90
40151;DHT22;25866;52.420;10.640;2023-06-10T13:48:47;28.50;90.20
40151;DHT22;25866;52.420;10.640;2023-06-10T13:51:13;28.30;90.10
40151;DHT22;25866;52.420;10.640;2023-06-10T13:53:39;28.10;89.40
40151;DHT22;25866;52.420;10.640;2023-06-10T13:56:04;28.10;90.00
40151;DHT22;25866;52.420;10.640;2023-06-10T13:58:30;28.30;89.20
40151;DHT22;25866;52.420;10.640;2023-06-10T14:00:56;28.60;88.70
40151;DHT22;25866;52.420;10.640;2023-06-10T14:03:24;28.90;89.00
40151;DHT22;25866;52.420;10.640;2023-06-10T14:05:52;29.00;87.40
40151;DHT22;25866;52.420;10.640;2023-06-10T14:08:17;29.00;90.50
40151;DHT22;25866;52.420;10.640;2023-06-10T14:10:43;29.20;88.20
40151;DHT22;25866;52.420;10.640;2023-06-10T14:13:09;29.10;86.20
40151;DHT22;25866;52.420;10.640;2023-06-10T14:15:35;29.10;87.10
40151;DHT22;25866;52.420;10.640;2023-06-10T14:18:01;29.20;88.00
40151;DHT22;25866;52.420;10.640;2023-06-10T14:20:27;29.40;90.60
40151;DHT22;25866;52.420;10.640;2023-06-10T14:22:57;29.50;88.00
40151;DHT22;25866;52.420;10.640;2023-06-10T14:25:23;29.70;88.40
40151;DHT22;25866;52.420;10.640;2023-06-10T14:27:49;29.70;86.10
40151;DHT22;25866;52.420;10.640;2023-06-10T14:30:14;29.80;86.90
40151;DHT22;25866;52.420;10.640;2023-06-10T14:32:41;29.80;84.40
40151;DHT22;25866;52.420;10.640;2023-06-10T14:35:07;29.70;85.10
40151;DHT22;25866;52.420;10.640;2023-06-10T14:37:33;29.70;85.30
40151;DHT22;25866;52.420;10.640;2023-06-10T14:39:59;29.80;84.80
40151;DHT22;25866;52.420;10.640;2023-06-10T14:42:25;29.70;84.70
40151;DHT22;25866;52.420;10.640;2023-06-10T14:44:51;29.80;83.70
40151;DHT22;25866;52.420;10.640;2023-06-10T14:47:16;29.60;84.00
40151;DHT22;25866;52.420;10.640;2023-06-10T14:49:42;29.50;84.90
40151;DHT22;25866;52.420;10.640;2023-06-10T14:52:09;29.30;84.10
40151;DHT22;25866;52.420;10.640;2023-06-10T14:54:35;29.20;86.40
40151;DHT22;25866;52.420;10.640;2023-06-10T14:57:01;29.20;89.50
40151;DHT22;25866;52.420;10.640;2023-06-10T14:59:27;29.40;89.30
40151;DHT22;25866;52.420;10.640;2023-06-10T15:01:53;29.50;85.20
40151;DHT22;25866;52.420;10.640;2023-06-10T15:04:18;29.60;88.30
40151;DHT22;25866;52.420;10.640;2023-06-10T15:06:44;29.70;87.00
40151;DHT22;25866;52.420;10.640;2023-06-10T15:09:10;29.70;84.50
40151;DHT22;25866;52.420;10.640;2023-06-10T15:11:35;29.40;84.90
40151;DHT22;25866;52.420;10.640;2023-06-10T15:14:03;29.10;84.40
40151;DHT22;25866;52.420;10.640;2023-06-10T15:16:30;29.20;83.30
40151;DHT22;25866;52.420;10.640;2023-06-10T15:18:55;29.20;83.30
40151;DHT22;25866;52.420;10.640;2023-06-10T15:21:21;29.10;82.70
40151;DHT22;25866;52.420;10.640;2023-06-10T15:23:47;29.00;83.60
40151;DHT22;25866;52.420;10.640;2023-06-10T15:26:12;28.90;81.40